Time;durP1;ratioP1;P1;durP2;ratioP2;P2;SDS_P1;SDS_P2;PMS_P1;PMS_P2;Temp;Humidity;BMP_temperature;BMP_pressure;BME280_temperature;BME280_humidity;BME280_pressure;Samples;Min_cycle;Max_cycle;Signal;HPM_P1;HPM_P2
2023/07/26 00:00:00;;;;;;;16.73;15.15;;;10.30;99.90;;;;;;5041843;28;20078;-75
2023/07/26 00:02:26;;;;;;;16.70;15.30;;;10.10;99.90;;;;;;5038533;28;20045;-73
2023/07/26 00:04:53;;;;;;;16.60;15.45;;;10.00;99.90;;;;;;5040202;28;20083;-74
2023/07/26 00:07:20;;;;;;;16.48;15.30;;;9.90;99.90;;;;;;5025482;28;20041;-75
2023/07/26 00:09:47;;;;;;;16.85;15.48;;;10.00;99.90;;;;;;5033896;28;20060;-74
2023/07/26 00:12:14;;;;;;;16.45;14.90;;;10.00;99.90;;;;;;5033516;28;20108;-75
2023/07/26 00:14:41;;;;;;;16.13;14.80;;;9.90;99.90;;;;;;5025811;28;20052;-75
2023/07/26 00:17:07;;;;;;;16.77;15.38;;;9.90;99.90;;;;;;5028213;28;20049;-74
2023/07/26 00:19:34;;;;;;;15.50;14.30;;;9.80;99.90;;;;;;5050085;28;20049;-75
2023/07/26 00:22:01;;;;;;;16.23;14.88;;;9.80;99.90;;;;;;5031155;28;20427;-75
2023/07/26 00:24:27;;;;;;;15.85;14.57;;;9.70;99.90;;;;;;5032709;28;20091;-75
2023/07/26 00:26:54;;;;;;;14.07;13.07;;;9.70;99.90;;;;;;5033109;28;20144;-74
2023/07/26 00:29:21;;;;;;;14.70;13.50;;;9.60;99.90;;;;;;5030813;28;20067;-75
2023/07/26 00:31:47;;;;;;;13.63;12.52;;;9.70;99.90;;;;;;5037740;28;20807;-74
2023/07/26 00:34:14;;;;;;;14.07;12.82;;;9.50;99.90;;;;;;5027848;28;20048;-74
2023/07/26 00:36:41;;;;;;;14.80;13.43;;;9.60;99.90;;;;;;5030878;28;20052;-73
2023/07/26 00:39:08;;;;;;;14.65;13.23;;;9.50;99.90;;;;;;5022729;28;20049;-74
2023/07/26 00:41:35;;;;;;;14.48;13.15;;;9.30;99.90;;;;;;5052694;28;20419;-74
2023/07/26 00:44:02;;;;;;;16.45;13.15;;;9.20;99.90;;;;;;5033846;28;20109;-75
2023/07/26 00:46:29;;;;;;;14.85;13.48;;;9.10;99.90;;;;;;5049013;28;20042;-74
2023/07/26 00:48:59;;;;;;;13.35;12.35;;;9.10;99.90;;;;;;5025619;28;20077;-74
2023/07/26 00:51:27;;;;;;;14.18;12.55;;;9.10;99.90;;;;;;5036180;28;20045;-74
2023/07/26 00:53:54;;;;;;;14.20;13.00;;;9.10;99.90;;;;;;5036351;28;20047;-74
2023/07/26 00:56:22;;;;;;;13.75;12.60;;;9.10;99.90;;;;;;5032002;28;20053;-75
2023/07/26 00:58:49;;;;;;;14.38;12.93;;;9.10;99.90;;;;;;5030592;28;20049;-75
2023/07/26 01:01:16;;;;;;;14.77;13.05;;;9.00;99.90;;;;;;5026895;28;20500;-75
2023/07/26 01:03:43;;;;;;;15.32;13.80;;;9.00;99.90;;;;;;5035466;28;20053;-75
2023/07/26 01:06:35;;;;;;;18.80;13.43;;;9.00;99.90;;;;;;5025240;28;20111;-74
2023/07/26 01:09:11;;;;;;;14.00;12.82;;;9.00;99.90;;;;;;5035412;28;20045;-74
2023/07/26 01:11:44;;;;;;;13.40;12.10;;;8.90;99.90;;;;;;5028677;28;20046;-74
2023/07/26 01:14:30;;;;;;;12.98;11.77;;;8.80;99.90;;;;;;5029256;28;20037;-74
2023/07/26 01:16:57;;;;;;;12.80;11.68;;;8.70;99.90;;;;;;5039958;28;20128;-75
2023/07/26 01:19:24;;;;;;;13.93;12.27;;;8.60;99.90;;;;;;5025204;28;20064;-75
2023/07/26 01:21:50;;;;;;;14.10;12.65;;;8.60;99.90;;;;;;5043566;28;20585;-74
2023/07/26 01:24:17;;;;;;;12.68;11.77;;;8.60;99.90;;;;;;5041924;28;20142;-74
2023/07/26 01:26:44;;;;;;;14.88;12.88;;;8.60;99.90;;;;;;5016764;28;20046;-75
2023/07/26 01:29:11;;;;;;;12.48;11.48;;;8.40;99.90;;;;;;5033817;28;20152;-74
2023/07/26 01:31:38;;;;;;;12.45;11.35;;;8.60;99.90;;;;;;5031398;28;20075;-75
2023/07/26 01:34:07;;;;;;;11.98;11.07;;;8.60;99.90;;;;;;5016763;28;20041;-74
2023/07/26 01:36:34;;;;;;;12.25;11.25;;;8.50;99.90;;;;;;5034558;28;20399;-75
2023/07/26 01:39:03;;;;;;;11.80;10.90;;;8.40;99.90;;;;;;5024766;28;20033;-74
2023/07/26 01:41:31;;;;;;;17.35;12.32;;;8.50;99.90;;;;;;5015161;28;20094;-74
2023/07/26 01:43:59;;;;;;;12.55;11.25;;;8.50;99.90;;;;;;5013696;28;20124;-74
2023/07/26 01:46:26;;;;;;;13.15;11.43;;;8.40;99.90;;;;;;5016982;28;20526;-75
2023/07/26 01:48:53;;;;;;;13.07;11.82;;;8.50;99.90;;;;;;5033414;28;20057;-75
2023/07/26 01:51:19;;;;;;;12.93;11.75;;;8.60;99.90;;;;;;5028985;28;20044;-74
2023/07/26 01:53:46;;;;;;;12.90;12.00;;;8.50;99.90;;;;;;5041104;28;20036;-74
2023/07/26 01:56:15;;;;;;;12.52;11.52;;;8.40;99.90;;;;;;5012265;28;20033;-74
2023/07/26 01:58:42;;;;;;;12.88;11.70;;;8.30;99.90;;;;;;5032977;28;20037;-75
2023/07/26 02:01:09;;;;;;;12.82;11.93;;;8.20;99.90;;;;;;5013899;28;20076;-74
2023/07/26 02:03:36;;;;;;;13.77;12.73;;;8.00;99.90;;;;;;5035348;28;20045;-74
2023/07/26 02:06:02;;;;;;;13.73;12.45;;;8.00;99.90;;;;;;5027923;28;20145;-74
2023/07/26 02:08:29;;;;;;;14.07;12.85;;;8.00;99.90;;;;;;5044360;28;20041;-74
2023/07/26 02:10:56;;;;;;;14.07;12.85;;;8.00;99.90;;;;;;5025425;28;20060;-75
2023/07/26 02:13:23;;;;;;;14.15;13.15;;;8.10;99.90;;;;;;5037386;28;20049;-74
2023/07/26 02:15:50;;;;;;;15.27;13.82;;;8.00;99.90;;;;;;5038930;28;20037;-74
2023/07/26 02:18:17;;;;;;;15.75;14.15;;;8.00;99.90;;;;;;5020561;28;20132;-74
2023/07/26 02:20:44;;;;;;;13.82;12.73;;;8.20;99.90;;;;;;5032086;28;20112;-74
2023/07/26 02:23:11;;;;;;;14.45;13.02;;;8.20;99.90;;;;;;5030225;28;20112;-74
2023/07/26 02:25:38;;;;;;;17.23;13.15;;;8.20;99.90;;;;;;5034397;28;20041;-74
2023/07/26 02:28:04;;;;;;;14.70;12.98;;;8.40;99.90;;;;;;5028857;28;20053;-74
2023/07/26 02:30:31;;;;;;;13.40;12.25;;;8.30;99.90;;;;;;5018178;28;20049;-74
2023/07/26 02:32:58;;;;;;;13.55;12.25;;;8.30;99.90;;;;;;5022619;28;20044;-74
2023/07/26 02:35:25;;;;;;;13.73;12.43;;;8.30;99.90;;;;;;5033149;28;20083;-74
2023/07/26 02:37:52;;;;;;;16.75;12.43;;;8.30;99.90;;;;;;5035078;28;20041;-73
2023/07/26 02:40:18;;;;;;;13.02;11.93;;;8.20;99.90;;;;;;5028847;28;20041;-74
2023/07/26 02:42:45;;;;;;;12.35;11.40;;;8.10;99.90;;;;;;5035918;28;20036;-74
2023/07/26 02:45:12;;;;;;;12.70;11.70;;;8.10;99.90;;;;;;5030208;28;20055;-74
2023/07/26 02:47:39;;;;;;;13.27;12.07;;;8.20;99.90;;;;;;5015064;28;20044;-75
2023/07/26 02:50:06;;;;;;;13.75;12.57;;;8.20;99.90;;;;;;5033170;28;20153;-73
2023/07/26 02:52:33;;;;;;;13.57;11.75;;;8.20;99.90;;;;;;5018454;28;20045;-75
2023/07/26 02:55:00;;;;;;;11.90;10.80;;;8.40;99.90;;;;;;5022754;28;20020;-75
2023/07/26 02:57:27;;;;;;;12.43;11.15;;;8.50;99.90;;;;;;5023207;28;20079;-75
2023/07/26 02:59:54;;;;;;;13.00;11.05;;;8.60;99.90;;;;;;5033394;28;20097;-75
2023/07/26 03:02:22;;;;;;;14.00;11.57;;;8.70;99.90;;;;;;5027705;28;20037;-75
2023/07/26 03:04:49;;;;;;;14.00;11.90;;;8.70;99.90;;;;;;5036391;28;20044;-75
2023/07/26 03:07:16;;;;;;;13.50;11.48;;;8.80;99.90;;;;;;5012206;28;20037;-75
2023/07/26 03:09:43;;;;;;;13.25;11.95;;;8.80;99.90;;;;;;5012395;28;20060;-75
2023/07/26 03:12:10;;;;;;;14.48;11.73;;;8.90;99.90;;;;;;5036120;28;20828;-74
2023/07/26 03:14:40;;;;;;;13.40;10.55;;;8.80;99.90;;;;;;5011324;28;20041;-74
2023/07/26 03:17:09;;;;;;;16.60;12.82;;;8.90;99.90;;;;;;5033543;28;20044;-75
2023/07/26 03:19:48;;;;;;;12.57;11.48;;;9.00;99.90;;;;;;5030346;28;20044;-74
2023/07/26 03:22:16;;;;;;;12.32;10.85;;;9.00;99.90;;;;;;5018828;28;20060;-74
2023/07/26 03:24:43;;;;;;;12.07;10.98;;;9.00;99.90;;;;;;5019745;28;20049;-75
2023/07/26 03:27:10;;;;;;;10.35;9.55;;;9.00;99.90;;;;;;4999786;28;20135;-74
2023/07/26 03:29:37;;;;;;;11.60;10.70;;;8.90;99.90;;;;;;5031954;28;20102;-74
2023/07/26 03:32:04;;;;;;;12.48;11.38;;;8.90;99.90;;;;;;5032514;28;20527;-74
2023/07/26 03:34:31;;;;;;;11.52;10.55;;;9.00;99.90;;;;;;5005881;28;20056;-75
2023/07/26 03:36:58;;;;;;;13.20;11.77;;;8.90;99.90;;;;;;5032786;28;20519;-74
2023/07/26 03:39:25;;;;;;;12.40;11.40;;;9.00;99.90;;;;;;5027285;28;20057;-74
2023/07/26 03:41:52;;;;;;;13.15;11.95;;;9.20;99.90;;;;;;5037741;28;20479;-74
2023/07/26 03:44:19;;;;;;;15.68;11.77;;;9.10;99.90;;;;;;5019057;28;20037;-75
2023/07/26 03:46:48;;;;;;;15.38;13.45;;;9.30;99.90;;;;;;5029565;28;20084;-74
2023/07/26 03:49:15;;;;;;;13.75;12.40;;;9.30;99.90;;;;;;5028341;28;20053;-74
2023/07/26 03:51:42;;;;;;;15.63;12.32;;;9.40;99.90;;;;;;5032900;28;20099;-75
2023/07/26 03:54:09;;;;;;;13.25;11.88;;;9.30;99.90;;;;;;5018380;28;20545;-75
2023/07/26 03:56:35;;;;;;;13.43;12.23;;;9.30;99.90;;;;;;5032032;28;20041;-74
2023/07/26 03:59:02;;;;;;;13.95;11.90;;;9.30;99.90;;;;;;5002785;28;20097;-75
2023/07/26 04:01:29;;;;;;;13.50;12.02;;;9.40;99.90;;;;;;5027106;28;20041;-75
2023/07/26 04:03:56;;;;;;;14.13;12.82;;;9.60;99.90;;;;;;5013711;28;20099;-75
2023/07/26 04:06:23;;;;;;;14.38;12.88;;;9.70;99.90;;;;;;5031862;28;20790;-74
2023/07/26 04:08:50;;;;;;;16.45;14.02;;;9.80;99.90;;;;;;5017236;28;20097;-73
2023/07/26 04:11:17;;;;;;;14.57;13.18;;;9.80;99.90;;;;;;5025351;28;20037;-73
2023/07/26 04:13:44;;;;;;;20.70;14.68;;;9.80;99.90;;;;;;5033352;28;20065;-73
2023/07/26 04:16:18;;;;;;;15.85;14.05;;;9.90;99.90;;;;;;5029603;28;20095;-74
2023/07/26 04:18:45;;;;;;;15.05;13.65;;;9.90;99.90;;;;;;5026392;28;20051;-73
2023/07/26 04:21:17;;;;;;;15.80;14.30;;;10.00;99.90;;;;;;5029792;28;20124;-73
2023/07/26 04:23:45;;;;;;;18.23;16.38;;;10.10;99.90;;;;;;5036310;28;20072;-75
2023/07/26 04:26:13;;;;;;;15.75;14.35;;;10.10;99.90;;;;;;5028644;28;20036;-75
2023/07/26 04:28:39;;;;;;;16.80;15.00;;;10.20;99.90;;;;;;5028878;28;20042;-72
2023/07/26 04:31:06;;;;;;;15.90;14.45;;;10.20;99.90;;;;;;5034789;28;20036;-73
2023/07/26 04:33:33;;;;;;;13.43;12.32;;;10.30;99.90;;;;;;5023472;28;20049;-73
2023/07/26 04:36:00;;;;;;;14.75;13.15;;;10.40;99.90;;;;;;5032986;28;20048;-73
2023/07/26 04:38:27;;;;;;;14.55;13.13;;;10.30;99.90;;;;;;5025973;28;20059;-74
2023/07/26 04:40:54;;;;;;;19.33;16.00;;;10.50;99.90;;;;;;5024987;28;20037;-73
2023/07/26 04:43:21;;;;;;;16.23;14.68;;;10.60;99.90;;;;;;5029008;28;20049;-74
2023/07/26 04:45:49;;;;;;;18.52;16.73;;;10.60;99.90;;;;;;5024275;28;20055;-74
2023/07/26 04:48:17;;;;;;;17.10;15.45;;;10.70;99.90;;;;;;5025214;28;20072;-74
2023/07/26 04:50:47;;;;;;;18.67;16.98;;;10.80;99.90;;;;;;5010817;28;20045;-75
2023/07/26 04:53:15;;;;;;;17.55;16.05;;;10.90;99.90;;;;;;5031946;28;20045;-74
2023/07/26 04:55:46;;;;;;;18.65;16.77;;;10.90;99.90;;;;;;5034621;28;20103;-73
2023/07/26 04:58:13;;;;;;;18.60;16.80;;;11.00;99.90;;;;;;5029610;28;20041;-74
2023/07/26 05:00:41;;;;;;;18.35;16.55;;;11.00;99.90;;;;;;5026400;28;20116;-74
2023/07/26 05:03:09;;;;;;;19.20;17.42;;;11.10;99.90;;;;;;5030280;28;20048;-73
2023/07/26 05:05:37;;;;;;;18.15;16.52;;;11.20;99.90;;;;;;5017989;28;20681;-72
2023/07/26 05:08:05;;;;;;;18.38;14.13;;;11.10;99.90;;;;;;5027078;28;20588;-73
2023/07/26 05:10:32;;;;;;;12.65;11.48;;;11.00;99.90;;;;;;5019182;28;20053;-74
2023/07/26 05:12:59;;;;;;;15.68;12.13;;;10.90;99.90;;;;;;5028129;28;20597;-72
2023/07/26 05:15:26;;;;;;;17.77;11.55;;;10.90;99.90;;;;;;5024792;28;20045;-72
2023/07/26 05:17:54;;;;;;;11.70;8.20;;;10.90;99.90;;;;;;5021975;28;20037;-72
2023/07/26 05:20:21;;;;;;;13.55;9.05;;;10.70;99.90;;;;;;5022141;28;20049;-72
2023/07/26 05:22:47;;;;;;;15.38;9.55;;;10.70;99.90;;;;;;5023779;28;20044;-72
2023/07/26 05:25:14;;;;;;;14.23;10.93;;;10.60;99.90;;;;;;5030967;28;20033;-73
2023/07/26 05:27:41;;;;;;;18.95;12.77;;;10.60;99.90;;;;;;5027202;28;21140;-73
2023/07/26 05:30:08;;;;;;;17.20;12.60;;;10.60;99.90;;;;;;5029059;28;20706;-72
2023/07/26 05:32:35;;;;;;;17.25;12.52;;;10.60;99.90;;;;;;5029572;28;20041;-72
2023/07/26 05:35:02;;;;;;;17.75;11.90;;;10.50;99.90;;;;;;5027436;28;20033;-72
2023/07/26 05:37:34;;;;;;;17.48;11.20;;;10.50;99.90;;;;;;5020529;28;20057;-73
2023/07/26 05:40:02;;;;;;;13.98;10.20;;;10.50;99.90;;;;;;5025284;28;20531;-72
2023/07/26 05:42:30;;;;;;;15.65;9.02;;;10.50;99.90;;;;;;5026548;28;20132;-73
2023/07/26 05:44:56;;;;;;;13.30;9.82;;;10.50;99.90;;;;;;5011842;28;20647;-72
2023/07/26 05:47:24;;;;;;;11.65;9.18;;;10.60;99.90;;;;;;5026021;28;20049;-73
2023/07/26 05:49:51;;;;;;;14.40;9.68;;;10.60;99.90;;;;;;5022091;28;20136;-74
2023/07/26 05:52:18;;;;;;;13.75;10.90;;;10.60;99.90;;;;;;5030210;28;20135;-73
2023/07/26 05:54:45;;;;;;;11.68;10.50;;;10.60;99.90;;;;;;5027996;28;20030;-73
2023/07/26 05:57:12;;;;;;;16.92;13.40;;;10.70;99.90;;;;;;5034404;28;21461;-72
2023/07/26 05:59:39;;;;;;;13.95;12.50;;;10.70;99.90;;;;;;5031289;28;20669;-72
2023/07/26 06:02:06;;;;;;;16.88;12.90;;;10.70;99.90;;;;;;5034169;28;20072;-73
2023/07/26 06:04:34;;;;;;;14.13;11.82;;;10.90;99.90;;;;;;5029286;28;20048;-73
2023/07/26 06:07:01;;;;;;;15.63;11.55;;;10.90;99.90;;;;;;5029831;28;20041;-75
2023/07/26 06:09:33;;;;;;;14.88;10.02;;;10.80;99.90;;;;;;5029687;28;20543;-74
2023/07/26 06:12:00;;;;;;;13.25;9.95;;;10.90;99.90;;;;;;5030747;28;20529;-75
2023/07/26 06:14:28;;;;;;;12.02;10.43;;;10.90;99.90;;;;;;5026668;28;20097;-75
2023/07/26 06:16:55;;;;;;;12.25;10.05;;;10.90;99.90;;;;;;5009400;28;20076;-75
2023/07/26 06:19:23;;;;;;;10.90;9.13;;;11.10;99.90;;;;;;5027652;28;20684;-73
2023/07/26 06:21:50;;;;;;;10.15;9.15;;;11.10;99.90;;;;;;5026820;28;20036;-75
2023/07/26 06:24:17;;;;;;;9.63;8.52;;;11.30;99.90;;;;;;5015226;28;20152;-72
2023/07/26 06:26:44;;;;;;;9.98;8.85;;;11.40;99.90;;;;;;5023305;28;20040;-73
2023/07/26 06:29:11;;;;;;;10.55;9.40;;;11.50;99.90;;;;;;5020925;28;20307;-72
2023/07/26 06:31:37;;;;;;;9.98;8.95;;;11.50;99.90;;;;;;5033340;28;20033;-73
2023/07/26 06:34:04;;;;;;;9.75;8.85;;;11.50;99.90;;;;;;5031025;28;20041;-73
2023/07/26 06:36:31;;;;;;;11.63;9.65;;;11.50;99.90;;;;;;5032196;28;20140;-73
2023/07/26 06:38:58;;;;;;;10.93;9.93;;;11.70;99.90;;;;;;5040834;28;20041;-73
2023/07/26 06:41:24;;;;;;;12.98;11.77;;;11.80;99.90;;;;;;5047274;28;20040;-73
2023/07/26 06:43:52;;;;;;;11.93;10.90;;;11.90;99.90;;;;;;5055222;28;20048;-73
2023/07/26 06:46:18;;;;;;;13.48;12.30;;;12.10;99.90;;;;;;5024908;28;20045;-73
2023/07/26 06:48:45;;;;;;;14.80;13.57;;;12.20;99.90;;;;;;5032560;28;20048;-73
2023/07/26 06:51:12;;;;;;;15.85;14.50;;;12.20;99.90;;;;;;5039461;28;20048;-73
2023/07/26 06:53:39;;;;;;;16.88;15.50;;;12.20;99.90;;;;;;5035189;28;20107;-73
2023/07/26 06:56:06;;;;;;;20.15;16.73;;;12.20;99.90;;;;;;5032359;28;20041;-73
2023/07/26 06:58:32;;;;;;;18.10;16.50;;;12.20;99.90;;;;;;5028330;28;20465;-73
2023/07/26 07:00:59;;;;;;;18.63;16.85;;;12.50;99.90;;;;;;5027692;28;20037;-73
2023/07/26 07:03:28;;;;;;;18.00;16.70;;;12.80;99.90;;;;;;5033355;28;20117;-73
2023/07/26 07:05:54;;;;;;;19.13;17.83;;;13.10;99.90;;;;;;5035001;28;20060;-75
2023/07/26 07:08:22;;;;;;;22.15;20.55;;;13.30;99.90;;;;;;5028647;28;20056;-76
2023/07/26 07:10:51;;;;;;;20.15;18.73;;;13.50;99.90;;;;;;5032817;28;20052;-72
2023/07/26 07:13:18;;;;;;;21.88;20.33;;;13.70;99.90;;;;;;5040520;28;20188;-73
2023/07/26 07:15:45;;;;;;;21.35;19.90;;;13.50;99.90;;;;;;5029205;28;20067;-73
2023/07/26 07:18:12;;;;;;;21.52;19.90;;;13.60;99.90;;;;;;5035689;28;20045;-73
2023/07/26 07:20:42;;;;;;;22.52;20.92;;;13.70;99.90;;;;;;5035999;28;20119;-72
2023/07/26 07:23:09;;;;;;;24.08;22.38;;;14.00;99.90;;;;;;5029647;28;20049;-74
2023/07/26 07:25:39;;;;;;;23.33;21.65;;;14.00;99.90;;;;;;5038137;28;20041;-73
2023/07/26 07:28:06;;;;;;;22.45;20.88;;;14.10;99.90;;;;;;5041820;28;20608;-74
2023/07/26 07:30:33;;;;;;;22.88;21.27;;;14.30;99.90;;;;;;5025076;28;20054;-74
2023/07/26 07:33:00;;;;;;;25.63;23.63;;;14.10;99.90;;;;;;5037225;28;20048;-74
2023/07/26 07:35:27;;;;;;;24.63;22.92;;;13.90;99.90;;;;;;5030297;28;20063;-74
2023/07/26 07:37:54;;;;;;;25.25;23.23;;;13.70;99.90;;;;;;5032257;28;20161;-74
2023/07/26 07:40:21;;;;;;;24.42;22.58;;;13.80;99.90;;;;;;5030283;28;20040;-74
2023/07/26 07:42:48;;;;;;;24.50;22.80;;;13.90;99.90;;;;;;5030305;28;20045;-75
2023/07/26 07:45:15;;;;;;;23.35;21.55;;;14.00;99.90;;;;;;5017495;28;20048;-74
2023/07/26 07:47:42;;;;;;;24.83;22.85;;;14.10;99.90;;;;;;5037271;28;20490;-74
2023/07/26 07:50:09;;;;;;;24.85;23.20;;;13.90;99.90;;;;;;5028633;28;20078;-73
2023/07/26 07:52:36;;;;;;;23.65;22.05;;;13.60;99.90;;;;;;5026039;28;20079;-73
2023/07/26 07:55:03;;;;;;;22.20;20.60;;;13.60;99.90;;;;;;5029765;28;20732;-75
2023/07/26 07:57:30;;;;;;;23.42;21.83;;;13.80;99.90;;;;;;5016433;28;20045;-75
2023/07/26 07:59:57;;;;;;;24.17;22.48;;;14.10;99.90;;;;;;5019588;28;20657;-74
2023/07/26 08:02:24;;;;;;;27.77;25.83;;;14.40;99.90;;;;;;5025439;28;20040;-74
2023/07/26 08:04:51;;;;;;;25.73;23.88;;;14.40;99.90;;;;;;5021700;28;20084;-75
2023/07/26 08:07:17;;;;;;;25.15;23.35;;;14.60;99.90;;;;;;5009218;28;20045;-74
2023/07/26 08:09:44;;;;;;;26.20;24.30;;;15.10;99.90;;;;;;4980687;28;20080;-74
2023/07/26 08:12:12;;;;;;;27.63;25.52;;;15.30;99.90;;;;;;5041054;28;20121;-74
2023/07/26 08:14:38;;;;;;;26.98;25.13;;;15.30;99.90;;;;;;5034291;28;20108;-74
2023/07/26 08:17:05;;;;;;;26.10;24.20;;;15.40;99.90;;;;;;5045573;28;20048;-75
2023/07/26 08:19:32;;;;;;;27.38;25.48;;;15.30;99.90;;;;;;5009208;28;20072;-75
2023/07/26 08:21:59;;;;;;;27.17;25.17;;;15.20;99.90;;;;;;5030081;28;20048;-75
2023/07/26 08:24:26;;;;;;;27.23;25.23;;;15.10;99.90;;;;;;5032510;28;20056;-74
2023/07/26 08:26:53;;;;;;;29.13;27.13;;;15.00;99.90;;;;;;5028718;28;20041;-74
2023/07/26 08:29:20;;;;;;;27.65;25.67;;;15.00;99.90;;;;;;5020861;28;20130;-74
2023/07/26 08:31:47;;;;;;;29.33;27.15;;;15.20;99.90;;;;;;5028700;28;23484;-74
2023/07/26 08:34:14;;;;;;;29.30;27.23;;;15.60;99.90;;;;;;5031563;28;20094;-75
2023/07/26 08:36:40;;;;;;;26.98;25.08;;;15.90;99.90;;;;;;5031771;28;20080;-75
2023/07/26 08:39:07;;;;;;;28.00;26.08;;;16.40;99.90;;;;;;5020676;28;20396;-75
2023/07/26 08:41:41;;;;;;;29.50;27.60;;;16.40;99.90;;;;;;5008099;28;20095;-76
2023/07/26 08:44:09;;;;;;;30.60;28.50;;;16.60;99.90;;;;;;5033528;28;20037;-74
2023/07/26 08:46:42;;;;;;;29.27;27.27;;;16.60;99.90;;;;;;5037762;28;20052;-73
2023/07/26 08:49:11;;;;;;;27.77;25.70;;;16.90;99.90;;;;;;5047141;28;20046;-73
2023/07/26 08:51:40;;;;;;;28.90;26.65;;;17.20;99.90;;;;;;5036767;28;20052;-74
2023/07/26 08:54:06;;;;;;;29.27;27.17;;;17.00;99.90;;;;;;5031735;28;20113;-75
2023/07/26 08:56:33;;;;;;;26.83;25.00;;;16.90;99.90;;;;;;5021841;28;20053;-73
2023/07/26 08:59:00;;;;;;;26.75;24.88;;;17.00;99.90;;;;;;5031809;28;20044;-75
2023/07/26 09:01:27;;;;;;;28.60;26.70;;;16.90;99.90;;;;;;5030100;28;20099;-75
2023/07/26 09:03:54;;;;;;;29.40;27.40;;;16.50;99.90;;;;;;5027188;28;20418;-75
2023/07/26 09:06:26;;;;;;;30.45;28.50;;;16.30;99.90;;;;;;5010987;28;20927;-73
2023/07/26 09:08:53;;;;;;;32.30;30.23;;;15.90;99.90;;;;;;5028016;28;20048;-76
2023/07/26 09:11:20;;;;;;;31.10;29.20;;;15.90;99.90;;;;;;5011718;28;20070;-74
2023/07/26 09:13:56;;;;;;;27.83;25.58;;;16.30;99.90;;;;;;5027994;28;20534;-73
2023/07/26 09:16:27;;;;;;;27.10;25.05;;;16.90;99.90;;;;;;5038620;28;20041;-73
2023/07/26 09:19:04;;;;;;;30.38;28.27;;;17.00;99.90;;;;;;5042027;28;20554;-75
2023/07/26 09:21:33;;;;;;;31.10;29.10;;;16.90;99.90;;;;;;5033705;28;20053;-72
2023/07/26 09:24:03;;;;;;;31.15;29.15;;;16.70;99.90;;;;;;5028806;28;20080;-74
2023/07/26 09:26:41;;;;;;;30.08;28.35;;;16.40;99.90;;;;;;5012866;28;20419;-75
2023/07/26 09:29:10;;;;;;;27.17;25.38;;;16.50;99.90;;;;;;5029726;28;20106;-74
2023/07/26 09:31:38;;;;;;;29.73;27.92;;;16.80;99.90;;;;;;5034067;28;20087;-73
2023/07/26 09:34:14;;;;;;;30.08;28.08;;;17.00;99.90;;;;;;5047250;28;20099;-75
2023/07/26 09:36:54;;;;;;;28.35;26.35;;;17.50;99.90;;;;;;5038381;28;20045;-73
2023/07/26 09:39:24;;;;;;;28.48;26.67;;;17.60;99.90;;;;;;5037919;28;20052;-74
2023/07/26 09:42:10;;;;;;;31.58;29.48;;;17.40;99.90;;;;;;5034546;28;20526;-74
2023/07/26 09:44:37;;;;;;;29.17;27.13;;;17.50;99.90;;;;;;5035368;28;20059;-73
2023/07/26 09:47:05;;;;;;;28.65;26.65;;;17.80;99.90;;;;;;5033713;28;20474;-75
2023/07/26 09:49:33;;;;;;;28.30;26.50;;;18.30;99.90;;;;;;5035466;28;20080;-74
2023/07/26 09:52:11;;;;;;;29.48;27.48;;;18.70;99.90;;;;;;5043456;28;20065;-75
2023/07/26 09:54:40;;;;;;;29.55;27.48;;;18.90;99.90;;;;;;5049780;28;20095;-74
2023/07/26 09:57:07;;;;;;;28.80;27.00;;;18.80;99.90;;;;;;5036961;28;20029;-73
2023/07/26 09:59:40;;;;;;;29.17;27.27;;;18.90;99.90;;;;;;5053276;28;20044;-74
2023/07/26 10:02:11;;;;;;;28.58;26.67;;;18.90;99.90;;;;;;5032239;28;20053;-75
2023/07/26 10:04:49;;;;;;;30.20;28.30;;;19.00;99.90;;;;;;5038115;28;20067;-74
2023/07/26 10:07:16;;;;;;;29.42;27.33;;;18.80;99.90;;;;;;5041579;28;20505;-75
2023/07/26 10:09:45;;;;;;;30.25;28.35;;;18.70;99.90;;;;;;5043538;28;20052;-74
2023/07/26 10:12:13;;;;;;;29.67;27.67;;;18.60;99.90;;;;;;5037035;28;20045;-73
2023/07/26 10:14:41;;;;;;;31.27;29.17;;;18.50;99.90;;;;;;5032186;28;20057;-73
2023/07/26 10:17:09;;;;;;;30.10;28.23;;;18.70;99.90;;;;;;5034343;28;20048;-73
2023/07/26 10:19:38;;;;;;;28.40;26.55;;;19.20;99.90;;;;;;5016161;28;20045;-74
2023/07/26 10:22:06;;;;;;;27.98;26.17;;;19.50;99.90;;;;;;5035366;28;20041;-73
2023/07/26 10:24:36;;;;;;;27.58;25.77;;;19.30;99.90;;;;;;5014714;28;20129;-73
2023/07/26 10:27:04;;;;;;;33.58;31.15;;;19.00;99.90;;;;;;5025384;28;20049;-75
2023/07/26 10:29:31;;;;;;;31.45;29.40;;;18.60;99.90;;;;;;5031947;28;20072;-74
2023/07/26 10:32:03;;;;;;;32.63;30.08;;;18.80;99.90;;;;;;5035649;28;20056;-74
2023/07/26 10:34:30;;;;;;;31.52;29.45;;;19.20;99.90;;;;;;5035912;28;20059;-73
2023/07/26 10:36:57;;;;;;;32.88;30.77;;;19.50;99.90;;;;;;5032761;28;20033;-72
2023/07/26 10:39:34;;;;;;;29.50;27.70;;;19.50;99.90;;;;;;5029495;28;20049;-74
2023/07/26 10:42:05;;;;;;;27.25;25.45;;;19.50;99.90;;;;;;5017230;28;20120;-73
2023/07/26 10:44:40;;;;;;;33.58;31.38;;;19.50;99.90;;;;;;5024308;28;20067;-73
2023/07/26 10:47:07;;;;;;;34.72;32.38;;;19.50;99.90;;;;;;5052269;28;20074;-73
2023/07/26 10:49:34;;;;;;;33.97;31.88;;;19.70;99.90;;;;;;5043326;28;20052;-73
2023/07/26 10:52:03;;;;;;;33.50;31.58;;;19.60;99.90;;;;;;5049546;28;20081;-73
2023/07/26 10:54:44;;;;;;;30.67;28.67;;;20.10;99.90;;;;;;5050515;28;20653;-74
2023/07/26 10:57:31;;;;;;;29.33;27.30;;;20.00;99.90;;;;;;5036626;28;20406;-74
2023/07/26 11:00:16;;;;;;;30.00;27.83;;;19.40;99.90;;;;;;5046529;28;20041;-74
2023/07/26 11:02:43;;;;;;;;;;;19.20;99.90;;;;;;5026190;28;20041;-74
2023/07/26 11:05:19;;;;;;;35.13;32.85;;;19.10;99.90;;;;;;5046013;28;19974;-73
2023/07/26 11:08:02;;;;;;;34.25;31.98;;;19.30;99.90;;;;;;5048516;28;20048;-74
2023/07/26 11:10:31;;;;;;;35.58;33.28;;;19.80;99.90;;;;;;5031471;28;20176;-74
2023/07/26 11:13:19;;;;;;;33.00;30.80;;;20.10;99.90;;;;;;5046760;28;20040;-74
2023/07/26 11:15:48;;;;;;;31.98;29.85;;;20.10;99.90;;;;;;5051569;28;20044;-72
2023/07/26 11:18:40;;;;;;;34.17;31.98;;;19.90;99.90;;;;;;5032458;28;20048;-75
2023/07/26 11:21:14;;;;;;;33.33;31.23;;;19.80;99.90;;;;;;5052165;28;20067;-74
2023/07/26 11:23:41;;;;;;;28.27;26.38;;;19.90;99.90;;;;;;5049735;28;20131;-75
2023/07/26 11:26:07;;;;;;;34.55;32.35;;;19.90;99.90;;;;;;5048041;28;20507;-74
2023/07/26 11:28:34;;;;;;;33.72;31.42;;;19.50;99.90;;;;;;5027150;28;20044;-75
2023/07/26 11:31:01;;;;;;;34.00;31.70;;;19.80;99.90;;;;;;5046678;28;20048;-75
2023/07/26 11:33:31;;;;;;;36.10;33.85;;;20.20;99.90;;;;;;5054741;28;20067;-75
2023/07/26 11:36:00;;;;;;;33.28;31.08;;;20.10;99.90;;;;;;5029773;28;20067;-72
2023/07/26 11:38:27;;;;;;;30.58;28.33;;;20.10;99.90;;;;;;5039200;28;20033;-74
2023/07/26 11:40:56;;;;;;;28.60;26.40;;;20.10;99.90;;;;;;5041032;28;20126;-75
2023/07/26 11:43:27;;;;;;;29.83;27.67;;;20.00;99.90;;;;;;5021919;28;20052;-75
2023/07/26 11:45:56;;;;;;;33.83;31.42;;;19.70;99.90;;;;;;5033796;28;20110;-74
2023/07/26 11:48:25;;;;;;;33.60;31.30;;;19.30;99.90;;;;;;5033228;28;20036;-74
2023/07/26 11:50:55;;;;;;;34.83;32.53;;;19.50;99.90;;;;;;5013568;28;20045;-74
2023/07/26 11:53:34;;;;;;;29.75;27.65;;;19.90;99.90;;;;;;5003136;28;20037;-73
2023/07/26 11:56:12;;;;;;;28.10;26.10;;;20.20;99.90;;;;;;5015112;28;20045;-73
2023/07/26 11:58:41;;;;;;;33.58;31.08;;;19.80;99.90;;;;;;5021780;28;20064;-73
2023/07/26 12:01:08;;;;;;;32.88;30.65;;;19.40;99.90;;;;;;5025869;28;20033;-73
2023/07/26 12:03:35;;;;;;;33.95;31.65;;;19.70;99.90;;;;;;5014617;28;20048;-72
2023/07/26 12:06:03;;;;;;;27.85;25.85;;;20.30;99.90;;;;;;5031122;28;20123;-73
2023/07/26 12:08:35;;;;;;;29.35;27.33;;;20.60;99.90;;;;;;5047471;28;20437;-76
2023/07/26 12:11:05;;;;;;;30.05;27.75;;;20.50;99.90;;;;;;5036763;28;20037;-73
2023/07/26 12:13:33;;;;;;;28.70;26.70;;;20.00;99.90;;;;;;5030395;28;20099;-73
2023/07/26 12:16:01;;;;;;;29.70;27.63;;;19.90;99.90;;;;;;5020308;28;20063;-74
2023/07/26 12:18:29;;;;;;;28.40;26.40;;;19.30;99.90;;;;;;5041054;28;20059;-73
2023/07/26 12:21:04;;;;;;;28.60;26.50;;;19.00;99.90;;;;;;5048079;28;20056;-72
2023/07/26 12:23:53;;;;;;;32.63;30.42;;;18.70;99.90;;;;;;5050596;28;20106;-75
2023/07/26 12:26:24;;;;;;;30.13;27.98;;;18.60;99.90;;;;;;5046921;28;20452;-74
2023/07/26 12:28:53;;;;;;;29.10;26.85;;;18.30;99.90;;;;;;5030996;28;20411;-74
2023/07/26 12:31:23;;;;;;;28.65;26.35;;;17.50;99.90;;;;;;5045568;28;20049;-73
2023/07/26 12:33:54;;;;;;;27.30;25.13;;;17.20;99.90;;;;;;5041684;28;20074;-73
2023/07/26 12:36:23;;;;;;;28.30;26.00;;;16.80;99.90;;;;;;5054270;28;20441;-72